Terminal Aerodrome Forecast
Issued by NWS Missoula, MT

Home | Current Version | Previous Version | Text Only | Print | Product List | Glossary On
Versions: 1 2 3 4 5 6 7 8 9 10 11 12 13
000
FTUS45 KMSO 022014 AAA
TAFGPI
TAF AMD
KGPI 022014Z 0220/0318 04015G23KT 2SM -SN BKN025 OVC035
     FM022200 02022G34KT 1SM -SN BLSN OVC020
     FM030100 02020G30KT 3SM -SN OVC030=

USA.gov is the U.S. government's official web portal to all federal, state and local government web resources and services.